Hauptseite
METAR-TAF:

METAR-TAF

Flughäfen :

RAF Marham

Marham, England

Breite: 52-39N, Länge: 000-34E, Höhe: 23 m

Beobachtung

Neuester Wetterbericht von vor 27 Minuten, um 18:50 UTC
Wind 3 kt aus West
Temperatur 21°C
Luftfeuchtigkeit 73%
Luftdruck 1016 hPa
Sichtweite 10 km oder mehr

METAR: EGYM 191850Z AUTO 27003KT 9999 OVC033/// 21/16 Q1016

Zeit: 20:17 (19:17 UTC)


TAF: fehlend

Wetterbeobachtungen und Prognosen von mehr als 4000 Flughäfen (METAR und TAF Bericht).

Die verfügbaren Stationen werden durch gelbe und rote Markierungen auf der Karte dargestellt.

Führen Sie die Maus auf sie, um den Namen der Station zu sehen.

Darauf klicken, um die Beobachtung von Wetterbeobachtungen und Prognosen zu sehen.

Um die Karte zu ändern : klicken Sie auf den grünen Tasten mit einem schwarzen Kreuz Zum Vergrößern, auf den grünen Button mit einem Gedankenstrich zu verkleinern, oder auf die grünen Pfeile für benachbarte Karten.


METAR-TAF: